EA1JBU-2
43.30.80N 005.16.20W
IN73IM aprs.fi
zuletzt gehoert:
2022-07-05T15:30:05Z
zuerst gehoert:
2020-10-11T15:00:24Z

APRS IN73IM, 2 Stunde(n), EA1JBU-2 [17:41:47, 0s].
EA1JBU 43.30.80N 005.16.20WIN73IM 0.605km 348°NNW15:30:05ZEA1JBU(3EA1JBU-2)
EA1JBE 43.30.90N 005.16.15WIN73IM 0.779km 357°N15:37:44ZMAIN QTH http://qrz.com/db/ea1jbe(3EA1JBE-1)
MAIN QTH http://qrz.com/db/ea1jbe(2EA1JBE-13)
EA1JAY 43.29.33N 005.26.78WIN73GL 14.483km 262°W15:30:05ZEA1JAY(3EA1JAY-2)
EA1JW 43.31.35N 005.28.83WIN73GM 17.155km 275°W15:31:50ZMMDVM MMDVM HS Hat 436.5000/436.5000 CC1(3EA1JW-3)
EA1HJA 43.28.10N 005.30.45WIN73FL 19.763km 257°WSW15:37:00ZEA1HJA@URE.ES(3EA1HJA-2)
ED1ZBF 43.19.16N 005.06.74WIN73KH 24.459km 149°SSE15:32:23ZRD625 438.4750/430.8750 CC1
EB1GEM 43.30.00N 005.36.07WIN73EM 26.827km 268°W15:38:53ZWX3in1Plus2.0 U=13.3V,T=??.?C/??.?F(3EB1GEM-3)
EA4ACU 43.29.56N 005.38.92WIN73EL 30.705km 267°W15:31:59ZMMDVM MMDVM HS Hat 432.7000/432.7000 CC1(3EA4ACU-1)
EA1DZR 43.31.47N 005.40.00WIN73DM 32.154km 273°W15:32:00ZMMDVM DV ADER 434.3500/434.3500 CC1(3EA1DZR-4)
MMDVM DVMega 431.1000/431.1000 CC1(2EA1DZR-1)
MMDVM MMDVM HS Hat 432.1000/432.1000 CC2(2EA1DZR-2)
EA1IEJ 43.31.83N 005.40.22WIN73DM 32.492km 275°W15:32:01ZMMDVM DMO 222.3400/222.3400 CC1(3EA1IEJ-11)
ED1ZAS 43.27.52N 005.40.17WIN73DL 32.806km 261°W15:32:22ZRD985 438.2250/430.6250 CC1
ED1ZAE 43.27.99N 005.40.54WIN73DL 33.165km 262°W15:39:16ZWIDE3-3 ESAS3-3 IN73DL WWW.EA1URG.ORG(3ED1ZAE-3)
LEEL 43.32.98N 005.41.71WIN73DN 34.703km 278°W15:30:04ZHelipuerto de El Musel: LEAS 051430Z 05008KT 340V110 9999 FEW016 SCT022 19/17 Q1025 NOSIG=
EB1TK 43.32.22N 005.42.32WIN73DM 35.351km 275°W15:40:18ZWind 045°/015kn, Böen bis 019kn, Temp 18.89c, Regen 0.0mm, letzte 24h 1.0mm, seit 0h 1.0mm, Baro 1027.3h, Hum: 89%(3EB1TK-13)
ED1YCF 43.23.67N 004.49.64WIN73OJ 37.770km 109°ESE15:22:52Z12.4V 40C(3ED1YCF-3)
ED1ZBC 43.23.67N 004.49.64WIN73OJ 37.770km 109°ESE15:32:25ZRepetidor trabajando con placa solar y batería, está solamente de forma estatica el TG21433 por slot 438.5250/430.9250 CC1
KN6TUR 43.22.09N 005.42.22WIN73DI 38.396km 246°WSW15:40:04ZJulio Cesar
EA1IPU 43.26.21N 005.46.62WIN73CK 41.766km 259°W15:30:53ZMMDVM MMDVM HS Hat 439.8000/439.8000 CC1(3EA1IPU-1)
LEMR 43.25.83N 005.49.60WIN73CK 45.853km 259°W15:30:04ZAerodromo de la Morgal (123.500MHz): LEAS 051430Z 05008KT 340V110 9999 FEW016 SCT022 19/17 Q1025 NOSIG=
LEGM 43.26.15N 005.49.84WIN73CK 46.045km 260°W15:30:03ZHelipuerto de La Morgal (123.500MHz): LEAS 051430Z 05008KT 340V110 9999 FEW016 SCT022 19/17 Q1025 NOSIG=
LEHU 43.22.63N 005.49.57WIN73CJ 47.308km 252°WSW15:30:03ZHelipuerto del HUCA: LEAS 051430Z 05008KT 340V110 9999 FEW016 SCT022 19/17 Q1025 NOSIG=
33D00 43.21.63N 005.51.13WIN73BI 49.880km 251°WSW15:01:42Z33-D-00 Protección Civil REMER / Delegación del Gobierno en Asturias

aprs.pl 5.0.011w DL3EL © 2006-2021 [3616123]